Time;durP1;ratioP1;P1;durP2;ratioP2;P2;SDS_P1;SDS_P2;PMS_P1;PMS_P2;Temp;Humidity;BMP_temperature;BMP_pressure;BME280_temperature;BME280_humidity;BME280_pressure;Samples;Min_cycle;Max_cycle;Signal;HPM_P1;HPM_P2
2022/11/06 00:00:52;;;;;;;10.57;5.32;;;10.40;99.90;;;;;;5093369;28;20043;-58
2022/11/06 00:03:19;;;;;;;9.10;4.78;;;10.40;99.90;;;;;;5093122;28;20036;-59
2022/11/06 00:08:42;;;;;;;11.55;5.00;;;10.30;99.90;;;;;;5092878;28;20138;-58
2022/11/06 00:11:12;;;;;;;11.02;5.22;;;10.30;99.90;;;;;;5093070;28;20040;-58
2022/11/06 00:13:41;;;;;;;10.32;5.43;;;10.30;99.90;;;;;;5092720;28;20394;-59
2022/11/06 00:16:10;;;;;;;9.95;5.65;;;10.20;99.90;;;;;;5092917;28;20040;-59
2022/11/06 00:18:41;;;;;;;12.27;5.88;;;10.20;99.90;;;;;;5092569;28;20032;-58
2022/11/06 00:21:14;;;;;;;8.63;5.93;;;10.20;99.90;;;;;;5092850;28;20462;-59
2022/11/06 00:23:42;;;;;;;11.52;5.55;;;10.20;99.90;;;;;;5093026;28;20112;-59
2022/11/06 00:26:12;;;;;;;10.68;5.70;;;10.20;99.90;;;;;;5092539;28;20390;-58
2022/11/06 00:28:40;;;;;;;11.35;6.38;;;10.10;99.90;;;;;;5092677;28;20036;-59
2022/11/06 00:31:11;;;;;;;11.30;6.40;;;10.10;99.90;;;;;;5092970;28;20039;-58
2022/11/06 00:33:40;;;;;;;10.85;5.75;;;10.00;99.90;;;;;;5092900;28;20409;-59
2022/11/06 00:36:09;;;;;;;;;;;10.00;99.90;;;;;;5093156;28;20036;-58
2022/11/06 00:38:36;;;;;;;15.52;7.25;;;10.00;99.90;;;;;;5092859;28;20254;-58
2022/11/06 00:41:05;;;;;;;12.32;6.20;;;10.00;99.90;;;;;;5091122;28;20070;-58
2022/11/06 00:43:34;;;;;;;15.20;7.03;;;9.80;99.90;;;;;;5092050;28;20056;-58
2022/11/06 00:46:06;;;;;;;15.35;6.80;;;9.90;99.90;;;;;;5092552;28;20036;-57
2022/11/06 00:48:36;;;;;;;14.60;7.40;;;9.80;99.90;;;;;;5092297;28;20039;-58
2022/11/06 00:51:14;;;;;;;10.80;6.72;;;9.80;99.90;;;;;;5092745;28;20506;-58
2022/11/06 00:53:44;;;;;;;15.57;8.02;;;9.80;99.90;;;;;;5092347;28;20040;-58
2022/11/06 00:56:19;;;;;;;13.10;7.35;;;9.80;99.90;;;;;;5092123;28;20040;-58
2022/11/06 00:58:51;;;;;;;12.55;7.40;;;9.80;99.90;;;;;;5091984;28;20040;-59
2022/11/06 01:01:24;;;;;;;13.50;7.97;;;9.70;99.90;;;;;;5092234;28;20036;-58
2022/11/06 01:03:56;;;;;;;11.98;7.85;;;9.80;99.90;;;;;;5091867;28;20044;-58
2022/11/06 01:06:26;;;;;;;11.00;7.75;;;9.70;99.90;;;;;;5092364;28;20040;-59
2022/11/06 01:08:54;;;;;;;13.57;7.70;;;9.70;99.90;;;;;;5092205;28;20132;-57
2022/11/06 01:11:27;;;;;;;11.75;7.25;;;9.60;99.90;;;;;;5092687;28;20174;-58
2022/11/06 01:13:57;;;;;;;14.00;7.78;;;9.60;99.90;;;;;;5091820;28;20039;-58
2022/11/06 01:16:28;;;;;;;13.73;7.50;;;9.70;99.90;;;;;;5091811;28;20043;-58
2022/11/06 01:18:57;;;;;;;19.10;7.97;;;9.70;99.90;;;;;;5092054;28;20040;-58
2022/11/06 01:21:32;;;;;;;11.95;7.93;;;9.60;99.90;;;;;;5091930;28;20035;-58
2022/11/06 01:24:04;;;;;;;13.55;8.32;;;9.60;99.90;;;;;;5093874;28;20040;-58
2022/11/06 01:26:34;;;;;;;14.13;8.13;;;9.70;99.90;;;;;;5095422;28;20044;-58
2022/11/06 01:29:04;;;;;;;14.07;8.38;;;9.60;99.90;;;;;;5095807;28;20047;-58
2022/11/06 01:31:34;;;;;;;15.70;8.63;;;9.60;99.90;;;;;;5095961;28;20036;-58
2022/11/06 01:34:02;;;;;;;15.82;9.55;;;9.70;99.90;;;;;;5095991;28;20470;-58
2022/11/06 01:36:34;;;;;;;13.48;8.48;;;9.60;99.90;;;;;;5095686;28;20123;-58
2022/11/06 01:39:03;;;;;;;11.68;7.88;;;9.50;99.90;;;;;;5095726;28;20052;-58
2022/11/06 01:41:35;;;;;;;14.48;9.07;;;9.60;99.90;;;;;;5096282;28;20093;-58
2022/11/06 01:44:25;;;;;;;15.80;8.82;;;9.60;99.90;;;;;;5095609;28;20052;-58
2022/11/06 01:46:56;;;;;;;16.05;9.25;;;9.60;99.90;;;;;;5094883;28;20044;-57
2022/11/06 01:49:27;;;;;;;14.30;9.20;;;9.60;99.90;;;;;;5095717;28;20032;-58
2022/11/06 01:52:02;;;;;;;13.38;9.77;;;9.50;99.90;;;;;;5096088;28;20345;-58
2022/11/06 01:54:35;;;;;;;14.85;9.10;;;9.50;99.90;;;;;;5095989;28;20074;-58
2022/11/06 01:57:05;;;;;;;17.58;8.98;;;9.50;99.90;;;;;;5077154;28;20036;-58
2022/11/06 01:59:38;;;;;;;17.80;9.85;;;9.60;99.90;;;;;;5095664;28;20048;-58
2022/11/06 02:02:08;;;;;;;16.92;9.73;;;9.50;99.90;;;;;;5095238;28;20363;-57
2022/11/06 02:04:41;;;;;;;;;;;9.50;99.90;;;;;;5095897;28;20044;-58
2022/11/06 02:07:09;;;;;;;14.65;9.68;;;9.50;99.90;;;;;;5095162;28;19916;-59
2022/11/06 02:09:36;;;;;;;16.52;9.35;;;9.40;99.90;;;;;;5095077;28;20043;-58
2022/11/06 02:12:20;;;;;;;14.18;9.48;;;9.50;99.90;;;;;;5095011;28;20500;-58
2022/11/06 02:15:12;;;;;;;16.17;9.90;;;9.40;99.90;;;;;;5095102;28;20047;-58
2022/11/06 02:18:03;;;;;;;16.75;10.38;;;9.50;99.90;;;;;;5095359;28;20055;-58
2022/11/06 02:20:52;;;;;;;18.30;10.93;;;9.50;99.90;;;;;;5095241;28;20043;-58
2022/11/06 02:23:39;;;;;;;14.48;9.85;;;9.40;99.90;;;;;;5095347;28;20106;-58
2022/11/06 02:26:26;;;;;;;18.92;9.80;;;9.50;99.90;;;;;;5095085;28;20036;-58
2022/11/06 02:29:09;;;;;;;17.00;9.60;;;9.40;99.90;;;;;;5094733;28;20044;-58
2022/11/06 02:31:44;;;;;;;16.38;10.90;;;9.50;99.90;;;;;;5094743;28;20043;-59
2022/11/06 02:34:14;;;;;;;15.23;9.90;;;9.40;99.90;;;;;;5094191;28;20038;-58
2022/11/06 02:36:56;;;;;;;15.77;9.75;;;9.40;99.90;;;;;;5095273;28;20032;-58
2022/11/06 02:39:32;;;;;;;13.82;10.25;;;9.40;99.90;;;;;;5095054;28;20042;-58
2022/11/06 02:42:04;;;;;;;15.48;9.75;;;9.40;99.90;;;;;;5095022;28;20113;-58
2022/11/06 02:44:37;;;;;;;14.23;9.85;;;9.40;99.90;;;;;;5094499;28;20060;-58
2022/11/06 02:47:10;;;;;;;14.05;9.70;;;9.40;99.90;;;;;;5094513;28;20397;-58
2022/11/06 02:50:01;;;;;;;14.02;9.75;;;9.50;99.90;;;;;;5094422;28;20477;-58
2022/11/06 02:52:43;;;;;;;17.08;10.52;;;9.50;99.90;;;;;;5094553;28;20042;-58
2022/11/06 02:55:31;;;;;;;13.07;9.90;;;9.40;99.90;;;;;;5093672;28;20051;-58
2022/11/06 02:58:05;;;;;;;11.68;9.68;;;9.40;99.90;;;;;;5093868;28;20127;-58
2022/11/06 03:00:36;;;;;;;13.05;9.27;;;9.50;99.90;;;;;;5094740;28;20098;-58
2022/11/06 03:03:21;;;;;;;13.90;9.77;;;9.40;99.90;;;;;;5094259;28;20059;-58
2022/11/06 03:06:01;;;;;;;16.95;9.93;;;9.50;99.90;;;;;;5094941;28;20442;-58
2022/11/06 03:09:03;;;;;;;15.40;9.93;;;9.50;99.90;;;;;;5094088;28;20500;-58
2022/11/06 03:11:40;;;;;;;17.98;9.02;;;9.50;99.90;;;;;;5094066;28;20064;-58
2022/11/06 03:14:44;;;;;;;13.30;9.43;;;9.50;99.90;;;;;;5094152;28;20040;-58
2022/11/06 03:17:36;;;;;;;21.20;9.50;;;9.50;99.90;;;;;;4992187;28;20046;-58
2022/11/06 03:20:25;;;;;;;15.85;9.68;;;9.60;99.90;;;;;;4992382;28;20046;-58
2022/11/06 03:22:58;;;;;;;12.52;8.70;;;9.50;99.90;;;;;;4992279;28;20568;-58
2022/11/06 03:25:42;;;;;;;11.18;9.00;;;9.50;99.90;;;;;;4992054;28;20057;-58
2022/11/06 03:28:25;;;;;;;13.10;9.85;;;9.50;99.90;;;;;;4991677;28;20046;-58
2022/11/06 03:30:59;;;;;;;13.07;9.35;;;9.50;99.90;;;;;;4992241;28;20039;-58
2022/11/06 03:34:03;;;;;;;12.23;8.98;;;9.50;99.90;;;;;;4990834;28;20042;-58
2022/11/06 03:36:42;;;;;;;16.38;9.15;;;9.60;99.90;;;;;;4989564;28;20046;-58
2022/11/06 03:39:25;;;;;;;13.60;8.90;;;9.60;99.90;;;;;;4991906;28;20532;-58
2022/11/06 03:42:09;;;;;;;11.68;9.20;;;9.60;99.90;;;;;;4992210;28;20674;-58
2022/11/06 03:44:42;;;;;;;16.55;9.55;;;9.50;99.90;;;;;;4991824;28;20054;-58
2022/11/06 03:47:18;;;;;;;13.05;9.02;;;9.50;99.90;;;;;;4991259;28;20497;-58
2022/11/06 03:50:00;;;;;;;15.20;9.15;;;9.60;99.90;;;;;;4991648;28;20409;-58
2022/11/06 03:52:34;;;;;;;12.63;8.85;;;9.60;99.90;;;;;;4991574;28;20034;-58
2022/11/06 03:55:15;;;;;;;13.57;8.60;;;9.50;99.90;;;;;;5086862;28;20098;-58
2022/11/06 03:58:10;;;;;;;12.68;9.52;;;9.60;99.90;;;;;;5093071;28;20115;-58
2022/11/06 04:00:44;;;;;;;15.00;8.80;;;9.60;99.90;;;;;;5093455;28;20031;-58
2022/11/06 04:03:48;;;;;;;12.30;8.88;;;9.50;99.90;;;;;;5093196;28;20346;-58
2022/11/06 04:06:40;;;;;;;13.90;8.52;;;9.60;99.90;;;;;;5092949;28;20039;-58
2022/11/06 04:14:54;;;;;;;11.98;8.20;;;9.60;99.90;;;;;;5093108;28;20470;-58
2022/11/06 04:17:25;;;;;;;15.02;9.07;;;9.60;99.90;;;;;;5092358;28;20044;-58
2022/11/06 04:20:00;;;;;;;17.13;8.48;;;9.60;99.90;;;;;;5092665;28;20097;-58
2022/11/06 04:22:48;;;;;;;13.23;9.20;;;9.60;99.90;;;;;;5092210;28;20032;-58
2022/11/06 04:28:56;;;;;;;13.55;8.05;;;9.60;99.90;;;;;;5092957;28;20086;-58
2022/11/06 04:31:56;;;;;;;12.23;8.30;;;9.60;99.90;;;;;;4990956;28;20094;-58
2022/11/06 04:34:48;;;;;;;15.25;8.52;;;9.60;99.90;;;;;;4990812;28;20206;-58
2022/11/06 04:37:27;;;;;;;15.82;8.68;;;9.60;99.90;;;;;;4990993;28;20047;-58
2022/11/06 04:40:12;;;;;;;16.10;8.60;;;9.60;99.90;;;;;;4990364;28;20047;-58
2022/11/06 04:43:23;;;;;;;12.48;7.97;;;9.70;99.90;;;;;;4990912;28;20536;-58
2022/11/06 04:45:58;;;;;;;11.15;7.28;;;9.70;99.90;;;;;;4932964;29;20104;-59
2022/11/06 04:48:33;;;;;;;13.63;8.35;;;9.60;99.90;;;;;;4932751;29;20052;-58
2022/11/06 04:51:10;;;;;;;16.08;8.68;;;9.70;99.90;;;;;;4932966;29;20595;-59
2022/11/06 04:53:41;;;;;;;14.10;8.45;;;9.70;99.90;;;;;;4933045;29;20052;-58
2022/11/06 04:56:21;;;;;;;18.50;8.07;;;9.70;99.90;;;;;;4932550;29;20122;-58
2022/11/06 04:58:51;;;;;;;13.40;7.85;;;9.70;99.90;;;;;;4932183;29;20040;-59
2022/11/06 05:01:23;;;;;;;11.55;7.22;;;9.60;99.90;;;;;;4932809;29;20403;-58
2022/11/06 05:03:54;;;;;;;14.70;8.60;;;9.70;99.90;;;;;;4932780;29;20486;-58
2022/11/06 05:06:25;;;;;;;12.50;7.53;;;9.70;99.90;;;;;;4932783;29;20427;-58
2022/11/06 05:08:54;;;;;;;12.13;7.38;;;9.60;99.90;;;;;;4985007;28;20050;-58
2022/11/06 05:11:22;;;;;;;20.95;8.85;;;9.60;99.90;;;;;;5010117;28;20038;-58
2022/11/06 05:13:53;;;;;;;12.48;7.75;;;9.70;99.90;;;;;;5010232;28;20054;-58
2022/11/06 05:16:25;;;;;;;17.35;8.18;;;9.70;99.90;;;;;;5010389;28;20042;-58
2022/11/06 05:18:52;;;;;;;10.15;7.53;;;9.70;99.90;;;;;;5017770;28;20116;-58
2022/11/06 05:24:11;;;;;;;14.15;8.15;;;9.70;99.90;;;;;;5071763;28;20043;-58
2022/11/06 05:26:40;;;;;;;11.52;7.35;;;9.70;99.90;;;;;;5071512;28;20045;-59
2022/11/06 05:29:07;;;;;;;11.68;6.68;;;9.60;99.90;;;;;;5071606;28;20071;-58
2022/11/06 05:31:36;;;;;;;16.97;7.30;;;9.70;99.90;;;;;;5071353;28;20043;-58
2022/11/06 05:34:07;;;;;;;12.95;7.05;;;9.70;99.90;;;;;;5071644;28;20502;-58
2022/11/06 05:36:36;;;;;;;10.93;7.45;;;9.60;99.90;;;;;;5071619;28;20390;-58
2022/11/06 05:39:06;;;;;;;11.45;6.65;;;9.70;99.90;;;;;;5071966;28;20047;-58
2022/11/06 05:41:37;;;;;;;16.52;7.35;;;9.70;99.90;;;;;;5071800;28;20142;-58
2022/11/06 05:44:08;;;;;;;10.95;6.97;;;9.60;99.90;;;;;;5081014;28;20139;-59
2022/11/06 05:46:41;;;;;;;8.73;6.32;;;9.60;99.90;;;;;;5091622;28;20044;-58
2022/11/06 05:49:08;;;;;;;12.23;6.55;;;9.70;99.90;;;;;;5091548;28;20040;-58
2022/11/06 05:51:39;;;;;;;19.42;6.60;;;9.60;99.90;;;;;;5073332;28;20052;-58
2022/11/06 05:54:07;;;;;;;10.75;6.28;;;9.60;99.90;;;;;;5091466;28;20077;-58
2022/11/06 05:56:38;;;;;;;11.13;5.88;;;9.50;99.90;;;;;;5091581;28;20123;-58
2022/11/06 05:59:10;;;;;;;15.18;7.72;;;9.60;99.90;;;;;;5091291;28;20036;-58
2022/11/06 06:01:40;;;;;;;11.65;6.25;;;9.60;99.90;;;;;;5091075;28;20056;-58
2022/11/06 06:04:10;;;;;;;13.90;6.50;;;9.60;99.90;;;;;;5091518;28;20499;-58
2022/11/06 06:06:40;;;;;;;13.93;6.88;;;9.60;99.90;;;;;;5091935;28;20044;-58
2022/11/06 06:09:10;;;;;;;14.77;6.72;;;9.60;99.90;;;;;;5091593;28;20039;-58
2022/11/06 06:11:41;;;;;;;9.82;5.60;;;9.60;99.90;;;;;;5095456;28;20191;-58
2022/11/06 06:14:08;;;;;;;10.93;5.53;;;9.60;99.90;;;;;;5095516;28;20386;-59
2022/11/06 06:16:37;;;;;;;9.35;5.95;;;9.70;99.90;;;;;;5095048;28;20085;-58
2022/11/06 06:19:06;;;;;;;11.07;6.03;;;9.60;99.90;;;;;;5093792;28;20052;-58
2022/11/06 06:21:35;;;;;;;11.02;6.28;;;9.60;99.90;;;;;;5076768;28;20134;-58
2022/11/06 06:24:04;;;;;;;7.03;5.35;;;9.70;99.90;;;;;;5094450;28;20048;-59
2022/11/06 06:26:34;;;;;;;11.93;6.43;;;9.60;99.90;;;;;;5094888;28;20508;-59
2022/11/06 06:29:07;;;;;;;14.90;5.70;;;9.50;99.90;;;;;;5094656;28;20090;-59
2022/11/06 06:31:40;;;;;;;14.18;5.68;;;9.60;99.90;;;;;;5094673;28;20101;-58
2022/11/06 06:34:08;;;;;;;16.55;5.72;;;9.60;99.90;;;;;;5095069;28;20431;-58
2022/11/06 06:36:34;;;;;;;11.10;5.45;;;9.60;99.90;;;;;;5093201;28;20043;-58
2022/11/06 06:39:04;;;;;;;16.75;6.32;;;9.60;99.90;;;;;;5094228;28;20187;-59
2022/11/06 06:41:37;;;;;;;10.45;5.78;;;9.60;99.90;;;;;;5094884;28;20043;-58
2022/11/06 06:44:04;;;;;;;10.00;6.22;;;9.50;99.90;;;;;;5094355;28;20425;-58
2022/11/06 06:46:34;;;;;;;10.35;4.93;;;9.50;99.90;;;;;;5094544;28;20040;-58
2022/11/06 06:49:04;;;;;;;12.73;5.45;;;9.60;99.90;;;;;;5094519;28;20044;-58
2022/11/06 06:51:32;;;;;;;;;;;9.60;99.90;;;;;;5094977;28;20067;-59
2022/11/06 06:54:01;;;;;;;16.40;6.03;;;9.60;99.90;;;;;;5094783;28;19923;-58
2022/11/06 06:56:32;;;;;;;;;;;9.50;99.90;;;;;;5095387;28;20039;-58
2022/11/06 06:59:00;;;;;;;13.00;4.82;;;9.60;99.90;;;;;;5094724;28;19923;-58
2022/11/06 07:01:31;;;;;;;11.07;5.22;;;9.60;99.90;;;;;;5093860;28;20040;-58
2022/11/06 07:04:01;;;;;;;10.63;4.57;;;9.60;99.90;;;;;;5094344;28;20401;-58
2022/11/06 07:06:29;;;;;;;10.35;4.80;;;9.60;99.90;;;;;;5094047;28;20047;-58
2022/11/06 07:08:56;;;;;;;14.05;5.18;;;9.70;99.90;;;;;;5094345;28;20129;-58
2022/11/06 07:11:24;;;;;;;12.43;4.80;;;9.60;99.90;;;;;;5094618;28;20367;-58
2022/11/06 07:13:51;;;;;;;12.70;4.78;;;9.60;99.90;;;;;;5094032;28;20040;-58
2022/11/06 07:16:17;;;;;;;10.13;5.03;;;9.60;99.90;;;;;;5094050;28;20486;-58
2022/11/06 07:18:45;;;;;;;8.88;4.72;;;9.70;99.90;;;;;;5094049;28;20043;-58
2022/11/06 07:21:15;;;;;;;9.40;4.93;;;9.60;99.90;;;;;;5093099;28;20036;-58
2022/11/06 07:23:42;;;;;;;11.00;4.45;;;9.70;99.90;;;;;;5094058;28;20036;-58
2022/11/06 07:26:13;;;;;;;10.57;4.50;;;9.70;99.90;;;;;;5075584;28;20452;-58
2022/11/06 07:28:40;;;;;;;10.75;4.38;;;9.70;99.90;;;;;;5094292;28;20515;-59
2022/11/06 07:31:09;;;;;;;12.75;4.65;;;9.80;99.90;;;;;;5093141;28;20028;-58
2022/11/06 07:33:38;;;;;;;12.73;4.20;;;9.80;99.90;;;;;;5092805;28;20036;-59
2022/11/06 07:36:06;;;;;;;;;;;9.80;99.90;;;;;;5094059;28;20043;-58
2022/11/06 07:38:35;;;;;;;7.10;4.22;;;9.80;99.90;;;;;;5091730;28;19966;-58
2022/11/06 07:41:05;;;;;;;13.65;3.78;;;9.90;99.90;;;;;;5093183;28;20036;-58
2022/11/06 07:43:35;;;;;;;8.95;4.38;;;9.90;99.90;;;;;;5092246;28;20102;-59
2022/11/06 07:46:05;;;;;;;6.97;3.88;;;9.90;99.90;;;;;;5093736;28;20040;-58
2022/11/06 07:48:32;;;;;;;11.43;3.70;;;9.90;99.90;;;;;;5093343;28;20102;-58
2022/11/06 07:51:01;;;;;;;11.50;4.15;;;9.80;99.90;;;;;;5093384;28;20036;-58
2022/11/06 07:53:28;;;;;;;14.43;4.30;;;9.90;99.90;;;;;;5093367;28;20032;-59
2022/11/06 07:55:55;;;;;;;13.77;4.20;;;9.80;99.90;;;;;;5093158;28;20044;-58
2022/11/06 07:58:22;;;;;;;10.82;4.50;;;9.80;99.90;;;;;;5093166;28;20135;-58
2022/11/06 08:00:49;;;;;;;13.98;3.85;;;9.70;99.90;;;;;;5093087;28;20097;-58
2022/11/06 08:03:15;;;;;;;11.30;4.05;;;9.80;99.90;;;;;;5093626;28;20047;-58
2022/11/06 08:05:41;;;;;;;8.50;3.88;;;9.80;99.90;;;;;;5093274;28;20489;-58
2022/11/06 08:08:07;;;;;;;13.73;4.03;;;9.80;99.90;;;;;;5093051;28;20048;-59
2022/11/06 08:10:36;;;;;;;14.98;4.45;;;9.80;99.90;;;;;;5092285;28;20043;-59
2022/11/06 08:13:02;;;;;;;11.48;3.40;;;9.90;99.90;;;;;;5091354;28;20160;-59
2022/11/06 08:15:29;;;;;;;11.05;3.78;;;9.80;99.90;;;;;;5093028;28;20036;-58
2022/11/06 08:17:59;;;;;;;8.82;4.80;;;9.90;99.90;;;;;;5093037;28;20123;-58
2022/11/06 08:20:27;;;;;;;11.82;3.80;;;9.90;99.90;;;;;;5092806;28;20048;-58
2022/11/06 08:23:01;;;;;;;14.43;4.18;;;9.90;99.90;;;;;;5093146;28;20043;-58
2022/11/06 08:25:28;;;;;;;13.13;4.60;;;9.90;99.90;;;;;;5093015;28;20131;-58
2022/11/06 08:27:58;;;;;;;10.68;3.67;;;9.90;99.90;;;;;;5093052;28;20264;-58
2022/11/06 08:30:25;;;;;;;19.55;4.05;;;9.90;99.90;;;;;;5092759;28;20050;-58
2022/11/06 08:32:51;;;;;;;9.48;3.45;;;9.90;99.90;;;;;;5092501;28;20081;-58
2022/11/06 08:35:18;;;;;;;9.75;3.67;;;9.90;99.90;;;;;;5091509;28;20047;-58
2022/11/06 08:37:44;;;;;;;9.45;3.65;;;10.00;99.90;;;;;;5092103;28;20563;-58
2022/11/06 08:40:11;;;;;;;8.60;3.28;;;10.00;99.90;;;;;;5091110;28;20060;-58
2022/11/06 08:42:41;;;;;;;14.82;3.97;;;10.00;99.90;;;;;;5090601;28;20038;-58
2022/11/06 08:45:11;;;;;;;9.60;3.75;;;10.00;99.90;;;;;;5090699;28;20066;-58
2022/11/06 08:47:41;;;;;;;11.38;4.00;;;10.10;99.90;;;;;;5092418;28;20036;-58
2022/11/06 08:50:08;;;;;;;10.38;3.90;;;10.10;99.90;;;;;;5092525;28;20371;-59
2022/11/06 08:52:36;;;;;;;9.13;3.20;;;10.10;99.90;;;;;;5092569;28;20474;-60
2022/11/06 08:55:03;;;;;;;6.45;2.90;;;10.10;99.90;;;;;;5073861;28;20051;-59
2022/11/06 08:57:30;;;;;;;11.45;3.78;;;10.20;99.90;;;;;;5092272;28;20047;-59
2022/11/06 09:00:02;;;;;;;7.30;2.97;;;10.20;99.90;;;;;;5073668;28;20048;-59
2022/11/06 09:02:30;;;;;;;16.27;3.40;;;10.20;99.90;;;;;;5091497;28;20086;-59
2022/11/06 09:04:58;;;;;;;11.25;3.38;;;10.20;99.90;;;;;;5092274;28;20119;-59
2022/11/06 09:07:28;;;;;;;7.88;3.45;;;10.20;99.90;;;;;;5074001;28;20040;-59
2022/11/06 09:09:57;;;;;;;10.40;3.28;;;10.30;99.90;;;;;;5092402;28;20040;-58
2022/11/06 09:12:24;;;;;;;10.18;3.05;;;10.40;99.90;;;;;;5073566;28;20058;-59
2022/11/06 09:14:53;;;;;;;9.70;3.15;;;10.40;99.90;;;;;;5091018;28;20512;-59
2022/11/06 09:17:22;;;;;;;8.05;3.17;;;10.50;99.90;;;;;;5073265;28;20505;-59
2022/11/06 09:19:53;;;;;;;5.28;2.80;;;10.50;99.90;;;;;;5091554;28;20084;-59
2022/11/06 09:22:21;;;;;;;7.43;3.28;;;10.50;99.90;;;;;;5092004;28;20040;-59
2022/11/06 09:24:49;;;;;;;5.72;2.60;;;10.60;99.90;;;;;;5091812;28;20040;-59
2022/11/06 09:27:17;;;;;;;10.00;2.72;;;10.70;99.90;;;;;;5091878;28;20036;-59
2022/11/06 09:29:44;;;;;;;6.95;2.97;;;10.70;99.90;;;;;;5091920;28;20040;-59
2022/11/06 09:32:14;;;;;;;9.30;2.75;;;10.80;99.90;;;;;;5091741;28;20040;-59
2022/11/06 09:34:44;;;;;;;10.38;3.60;;;10.70;99.90;;;;;;5092061;28;20120;-59
2022/11/06 09:37:11;;;;;;;6.80;2.72;;;10.70;99.90;;;;;;5073355;28;20040;-59
2022/11/06 09:39:41;;;;;;;10.05;2.95;;;10.80;99.90;;;;;;5091586;28;20036;-59
2022/11/06 09:42:13;;;;;;;11.80;3.08;;;10.80;99.90;;;;;;5073648;28;20482;-59
2022/11/06 09:45:01;;;;;;;9.52;3.78;;;10.80;99.90;;;;;;5092973;28;20060;-59
2022/11/06 09:47:33;;;;;;;12.40;2.90;;;10.70;99.90;;;;;;5095639;28;20048;-59
2022/11/06 09:50:04;;;;;;;6.25;2.88;;;10.80;99.90;;;;;;5095825;28;20082;-59
2022/11/06 09:52:52;;;;;;;7.68;2.92;;;10.80;99.90;;;;;;5095606;28;20594;-59
2022/11/06 09:55:37;;;;;;;6.57;2.53;;;10.90;99.90;;;;;;5095619;28;20478;-59
2022/11/06 09:58:11;;;;;;;7.43;2.70;;;10.90;99.90;;;;;;5077118;28;20113;-59
2022/11/06 10:00:41;;;;;;;7.05;2.90;;;10.90;99.90;;;;;;5095788;28;20036;-59
2022/11/06 10:03:49;;;;;;;7.88;2.72;;;10.90;99.90;;;;;;5095436;28;20036;-59
2022/11/06 10:06:19;;;;;;;8.80;2.78;;;10.90;99.90;;;;;;4993880;28;20050;-59
2022/11/06 10:08:46;;;;;;;6.32;2.10;;;11.00;99.90;;;;;;4993606;28;20064;-59
2022/11/06 10:11:14;;;;;;;7.65;2.88;;;11.00;99.90;;;;;;4993503;28;20369;-60
2022/11/06 10:14:12;;;;;;;7.75;2.60;;;11.00;99.90;;;;;;4993649;28;20464;-60
2022/11/06 10:17:05;;;;;;;9.23;3.38;;;11.10;99.90;;;;;;4993605;28;20047;-59
2022/11/06 10:19:46;;;;;;;5.53;2.60;;;11.10;99.90;;;;;;4993677;28;20508;-59
2022/11/06 10:22:34;;;;;;;7.57;2.35;;;11.20;99.90;;;;;;4993547;28;20112;-59
2022/11/06 10:25:07;;;;;;;9.43;2.50;;;11.20;99.90;;;;;;4993223;28;20534;-59
2022/11/06 10:27:41;;;;;;;6.82;2.63;;;11.20;99.90;;;;;;4993214;28;20054;-60
2022/11/06 10:30:14;;;;;;;6.28;2.20;;;11.20;99.90;;;;;;4993154;28;20042;-59
2022/11/06 10:32:55;;;;;;;7.40;2.60;;;11.30;99.90;;;;;;4994748;28;20026;-59
2022/11/06 10:35:33;;;;;;;8.48;2.70;;;11.30;99.90;;;;;;4988430;28;20034;-60
2022/11/06 10:38:32;;;;;;;9.63;2.70;;;11.30;99.90;;;;;;4981704;28;20046;-59
2022/11/06 10:41:00;;;;;;;6.53;2.63;;;11.30;99.90;;;;;;4958365;28;20162;-60
2022/11/06 10:43:36;;;;;;;11.80;3.50;;;11.40;99.90;;;;;;4982210;28;21037;-59
2022/11/06 10:46:27;;;;;;;9.93;2.63;;;11.40;99.90;;;;;;4982402;28;20552;-59
2022/11/06 10:48:59;;;;;;;6.72;2.10;;;11.50;99.90;;;;;;5007577;28;20080;-59
2022/11/06 10:51:44;;;;;;;7.45;2.50;;;11.50;99.90;;;;;;5005954;28;20121;-60
2022/11/06 10:54:39;;;;;;;8.93;2.05;;;11.50;99.90;;;;;;4992784;28;20034;-59
2022/11/06 10:57:22;;;;;;;6.15;2.80;;;11.50;99.90;;;;;;4996636;28;20401;-59
2022/11/06 10:59:50;;;;;;;9.73;2.33;;;11.50;99.90;;;;;;4992767;28;20038;-59
2022/11/06 11:02:30;;;;;;;;;;;11.50;99.90;;;;;;4993438;28;20054;-60
2022/11/06 11:05:01;;;;;;;5.95;1.95;;;11.60;99.90;;;;;;4992766;28;20401;-59
2022/11/06 11:07:34;;;;;;;6.75;2.05;;;11.60;99.90;;;;;;4992820;28;20485;-59
2022/11/06 11:10:23;;;;;;;7.20;1.85;;;11.60;99.90;;;;;;4992882;28;20042;-59
2022/11/06 11:12:53;;;;;;;7.13;1.98;;;11.60;99.90;;;;;;4992313;28;20556;-60
2022/11/06 11:15:25;;;;;;;5.32;1.90;;;11.60;99.90;;;;;;4992551;28;20046;-59
2022/11/06 11:18:18;;;;;;;7.95;2.10;;;11.60;99.90;;;;;;5034821;28;20049;-59
2022/11/06 11:20:50;;;;;;;11.10;2.78;;;11.60;99.90;;;;;;5073497;28;20051;-60
2022/11/06 11:23:17;;;;;;;12.07;3.13;;;11.60;99.90;;;;;;5073959;28;20470;-59
2022/11/06 11:25:57;;;;;;;8.27;2.10;;;11.50;99.90;;;;;;5073574;28;20123;-60
2022/11/06 11:28:28;;;;;;;7.63;2.53;;;11.40;99.90;;;;;;5073778;28;20048;-60
2022/11/06 11:31:08;;;;;;;7.63;2.17;;;11.40;99.90;;;;;;5073664;28;20040;-60
2022/11/06 11:33:39;;;;;;;7.53;2.55;;;11.40;99.90;;;;;;5073429;28;20036;-58
2022/11/06 11:36:10;;;;;;;9.60;2.90;;;11.30;99.90;;;;;;5073629;28;20181;-60
2022/11/06 11:38:43;;;;;;;7.35;2.63;;;11.30;99.90;;;;;;5077154;28;20043;-59
2022/11/06 11:41:30;;;;;;;12.88;2.72;;;11.20;99.90;;;;;;5091666;28;20043;-59
2022/11/06 11:44:05;;;;;;;9.10;2.45;;;11.30;99.90;;;;;;5082975;28;20060;-59
2022/11/06 11:46:34;;;;;;;7.80;2.58;;;11.20;99.90;;;;;;5073077;28;20036;-60
2022/11/06 11:49:04;;;;;;;4.68;2.63;;;11.30;99.90;;;;;;5072694;28;20394;-59
2022/11/06 11:51:35;;;;;;;10.13;2.90;;;11.20;99.90;;;;;;5073152;28;20052;-58
2022/11/06 11:54:25;;;;;;;7.43;2.33;;;11.10;99.90;;;;;;5072767;28;20099;-59
2022/11/06 11:57:17;;;;;;;8.40;2.55;;;11.20;99.90;;;;;;5072521;28;20052;-59
2022/11/06 11:59:52;;;;;;;7.20;2.45;;;11.20;99.90;;;;;;5072773;28;20098;-59
2022/11/06 12:02:22;;;;;;;6.22;2.70;;;11.20;99.90;;;;;;5072881;28;20040;-58
2022/11/06 12:04:59;;;;;;;12.88;2.70;;;11.30;99.90;;;;;;5072933;28;20102;-59
2022/11/06 12:07:36;;;;;;;7.80;2.03;;;11.20;99.90;;;;;;5072461;28;20111;-58
2022/11/06 12:10:33;;;;;;;8.38;2.10;;;11.30;99.90;;;;;;5072780;28;20048;-58
2022/11/06 12:13:15;;;;;;;7.22;2.88;;;11.30;99.90;;;;;;5072749;28;20390;-58
2022/11/06 12:16:02;;;;;;;10.07;2.47;;;11.40;99.90;;;;;;5072075;28;20033;-61
2022/11/06 12:18:33;;;;;;;7.88;2.17;;;11.50;99.90;;;;;;5072617;28;20115;-59
2022/11/06 12:21:09;;;;;;;9.35;2.92;;;11.40;99.90;;;;;;5072268;28;20042;-58
2022/11/06 12:23:47;;;;;;;6.18;2.72;;;11.40;99.90;;;;;;5072341;28;20047;-59
2022/11/06 12:26:31;;;;;;;6.28;2.10;;;11.40;99.90;;;;;;5072317;28;20047;-59
2022/11/06 12:29:12;;;;;;;5.90;2.38;;;11.40;99.90;;;;;;5072149;28;20135;-59
2022/11/06 12:31:47;;;;;;;8.77;2.20;;;11.50;99.90;;;;;;5072505;28;20032;-58
2022/11/06 12:34:22;;;;;;;7.40;2.25;;;11.50;99.90;;;;;;5072839;28;20542;-59
2022/11/06 12:37:07;;;;;;;5.68;2.20;;;11.60;99.90;;;;;;5072166;28;20071;-59
2022/11/06 12:39:40;;;;;;;3.92;1.83;;;11.70;99.90;;;;;;5071862;28;20048;-59
2022/11/06 12:42:11;;;;;;;6.03;2.28;;;11.80;99.90;;;;;;5071171;28;20504;-59
2022/11/06 12:44:37;;;;;;;6.05;2.03;;;11.90;99.90;;;;;;5079757;28;20101;-59
2022/11/06 12:47:23;;;;;;;8.88;2.97;;;12.00;99.90;;;;;;5081004;28;20569;-58
2022/11/06 12:50:16;;;;;;;5.15;1.85;;;12.00;99.90;;;;;;5072639;28;20044;-58
2022/11/06 12:53:06;;;;;;;3.55;1.80;;;12.10;99.90;;;;;;5089580;28;20062;-59
2022/11/06 12:55:41;;;;;;;6.88;2.33;;;12.10;99.90;;;;;;4990772;28;20101;-58
2022/11/06 12:58:45;;;;;;;5.30;1.90;;;12.10;99.90;;;;;;5008566;28;20050;-59
2022/11/06 13:01:38;;;;;;;5.53;1.63;;;12.10;99.90;;;;;;5010128;28;20045;-58
2022/11/06 13:04:24;;;;;;;7.43;2.28;;;12.10;99.90;;;;;;5010168;28;20168;-59
2022/11/06 13:07:17;;;;;;;6.93;1.63;;;12.10;99.90;;;;;;5010002;28;20076;-59
2022/11/06 13:10:00;;;;;;;5.63;1.73;;;12.10;99.90;;;;;;5008623;28;20088;-60
2022/11/06 13:12:54;;;;;;;5.97;1.42;;;12.10;99.90;;;;;;5006897;28;20086;-59
2022/11/06 13:15:48;;;;;;;4.50;1.77;;;12.10;99.90;;;;;;4989692;28;20614;-59
2022/11/06 13:18:21;;;;;;;6.32;1.83;;;12.10;99.90;;;;;;4990451;28;20420;-59
2022/11/06 13:20:59;;;;;;;7.43;2.00;;;12.10;99.90;;;;;;4993600;28;20408;-59
2022/11/06 13:23:34;;;;;;;6.63;1.80;;;12.10;99.90;;;;;;4994536;28;20042;-59
2022/11/06 13:26:13;;;;;;;8.10;1.70;;;12.10;99.90;;;;;;4994604;28;20505;-59
2022/11/06 13:28:54;;;;;;;7.53;1.52;;;12.10;99.90;;;;;;4994427;28;20042;-59
2022/11/06 13:31:25;;;;;;;6.00;2.33;;;12.10;99.90;;;;;;4994105;28;20037;-59
2022/11/06 13:33:55;;;;;;;8.85;1.45;;;12.10;99.90;;;;;;5095931;28;20039;-58
2022/11/06 13:36:22;;;;;;;8.35;1.40;;;12.10;99.90;;;;;;5095246;28;20043;-58
2022/11/06 13:38:59;;;;;;;6.55;1.65;;;12.00;99.90;;;;;;5095505;28;20036;-58
2022/11/06 13:41:30;;;;;;;3.58;1.30;;;12.10;99.90;;;;;;5094948;28;20036;-59